Caliente, Nevada Weather observations

Data are for observation ending at time listed.
 Day   Time    Ave.   Ave.  Ave.  Vector   Max.   Stn.    Total    Solar   Ave.  
  of    of     Air    Rel.  Wind   Wind    Wind   Baro.  Precip.   Rad.    Soil  
Year   Day     Temp.  Hum.  Speed  Dir.    Gust   Pres.                    Temp. 
2014   (PST)    F      %     mph   deg.    mph     mb.     in.     W/m2     F   
------------------------------------------------------------------------------
 262    6:40   55.9    52    1.4   131      2.3   867.0    0.00     161    74.6
 262    6:50   58.4    47    1.0   110      2.3   867.1    0.00     188    74.5
 262    7:00   59.9    44    1.1   100      2.8   867.2    0.00     213    74.4
 262    7:10   60.2    43    1.1   121      2.1   867.2    0.00     241    74.3
 262    7:20   61.4    42    1.0   165      2.7   867.2    0.00     267    74.2
 262    7:30   62.7    40    0.8   139      2.0   867.2    0.00     293    74.2
 262    7:40   64.3    38    1.5    27      4.5   867.2    0.00     319    74.1
 262    7:50   65.5    36    1.4    59      6.1   867.2    0.00     344    74.1
 262    8:00   65.7    36    2.8     5      5.0   867.3    0.00     370    74.1
 262    8:10   66.2    36    3.2     3      5.7   867.3    0.00     396    74.1
 262    8:20   67.2    34    2.5    13      4.6   867.2    0.00     224    74.1
 262    8:30   68.1    33    2.7     3      4.8   867.2    0.00     194    74.1
 262    8:40   69.3    32    2.7   355      4.7   867.2    0.00     435    74.2
 262    8:50   70.6    30    2.3   340      4.1   867.1    0.00     482    74.3
 262    9:00   71.9    30    0.9    18      3.0   867.1    0.00     503    74.4
 262    9:10   73.1    27    2.0   340      3.1   867.1    0.00     523    74.6
 262    9:20   73.9    26    1.3   324      2.8   867.0    0.00     542    74.8
 262    9:30   75.6    25    0.8    88      2.6   867.0    0.00     558    75.1
 262    9:40   76.2    24    1.4   276      4.2   867.0    0.00     574    75.4
 262    9:50   77.7    24    0.8   171      3.7   866.9    0.00     591    75.7
 262   10:00   78.9    24    1.0   225      3.2   866.8    0.00     604    76.0
 262   10:10   78.9    22    2.5   249      4.7   866.7    0.00     615    76.4
 262   10:20   79.2    23    1.0   173      3.4   866.6    0.00     624    76.8
 262   10:30   81.4    22    0.7   191      2.3   866.6    0.00     635    77.0
 262   10:40   81.3    24    1.8   128      3.4   866.5    0.00     645    77.1
 262   10:50   82.1    23    1.6    48      5.6   866.5    0.00     654    77.2
 262   11:00   83.0    23    2.9   100      6.5   866.3    0.00     663    77.3
 262   11:10   82.7    22    2.4    74      7.8   866.2    0.00     632    77.4
 262   11:20   83.6    22    2.4    12      5.6   866.1    0.00     680    77.5
 262   11:30   83.5    21    2.2   329      7.5   866.0    0.00     408    77.6
 262   11:40   84.1    20    8.0   255     19.1   865.8    0.00     585    77.8
 262   11:50   84.5    21    5.3   248     15.2   865.7    0.00     499    77.9
 262   12:00   84.0    21    8.0   247     15.5   865.6    0.00     648    78.1
 262   12:10   84.2    21    9.7   248     16.6   865.5    0.00     685    78.3
 262   12:20   84.7    20    9.5   248     16.4   865.3    0.00     663    78.5
 262   12:30   85.0    20   10.9   249     18.1   865.3    0.00     668    78.7
 262   12:40   84.8    20    6.5   246     13.7   865.3    0.00     658    78.9
 262   12:50   85.6    19    9.9   251     17.5   865.2    0.00     638    79.0
 262   13:00   85.4    20    7.5   242     15.1   865.1    0.00     633    79.2
 262   13:10   85.9    19    6.0   250     16.2   865.1    0.00     635    79.3
 262   13:20   86.1    18    7.4   248     16.1   865.0    0.00     606    79.6
 262   13:30   86.1    19    4.0   255      9.8   865.0    0.00     585    79.8
 262   13:40   86.2    19    4.2   249     13.3   864.9    0.00     570    80.2
 262   13:50   86.2    20    7.8   249     16.4   864.9    0.00     553    80.7
 262   14:00   86.2    19    8.9   257     14.0   864.8    0.00     538    81.3
 262   14:10   86.6    19    7.9   256     13.3   864.7    0.00     526    82.0
 262   14:20   86.4    20    8.8   252     16.0   864.7    0.00     495    82.7
 262   14:30   86.4    20    8.7   250     15.7   864.7    0.00     476    83.4
 262   14:40   86.8    19    6.8   251     14.5   864.6    0.00     453    84.1
 262   14:50   86.7    19    8.3   249     13.7   864.6    0.00     432    84.7
 262   15:00   86.9    19    8.7   251     15.6   864.5    0.00     407    85.3
 262   15:10   86.0    20    8.0   248     13.8   864.6    0.00     382    85.8
 262   15:20   86.2    19    7.7   246     11.9   864.6    0.00     358    86.3
 262   15:30   86.5    19    6.9   252     12.1   864.5    0.00     333    86.8
 262   15:40   86.8    19    6.5   251     11.7   864.5    0.00     308    87.2
 262   15:50   86.2    19    6.0   248      9.3   864.5    0.00     283    87.5
 262   16:00   85.7    20    7.1   245     13.0   864.5    0.00     255    87.8
 262   16:10   85.5    20    6.2   247      9.9   864.6    0.00     228    88.1
 262   16:20   85.4    20    7.6   247     14.1   864.5    0.00     201    88.4
 262   16:30   85.5    20    7.2   249     11.8   864.6    0.00     174    88.5
 262   16:40   85.0    21    7.0   249     10.1   864.6    0.00     148    88.6
 262   16:50   84.8    21    6.0   247     11.3   864.6    0.00     122    88.7
 262   17:00   84.2    21    6.1   246     10.4   864.6    0.00      98    88.7
 262   17:10   83.8    21    6.0   246     10.9   864.7    0.00      69    88.8
 262   17:20   83.3    21    6.5   246      9.1   864.7    0.00      42    88.8
 262   17:30   82.5    21    5.6   244      9.3   864.7    0.00       9    88.7
 262   17:40   82.0    22    4.3   246      8.3   864.8    0.00       6    88.5
 262   17:50   81.5    23    4.1   246      6.4   864.8    0.00       3    88.3
 262   18:00   80.9    24    2.0   234      6.8   865.0    0.00       1    88.0
 262   18:10   80.1    24    0.9   178      3.3   865.0    0.00       0    87.7
 262   18:20   80.0    24    1.1   249      3.2   865.2    0.00       0    87.5
 262   18:30   78.7    27    0.8   273      4.4   865.3    0.00       0    87.3
 262   18:40   77.7    28    0.3   295      1.1   865.3    0.00       0    87.0
 262   18:50   76.6    30    0.7   340      2.8   865.4    0.00       0    86.8
 262   19:00   75.6    32    0.5   335      2.0   865.6    0.00       0    86.5
 262   19:10   74.6    33    0.1   293      1.1   865.7    0.00       0    86.3
 262   19:20   73.7    34    0.0     0      0.0   865.8    0.00       0    86.0
 262   19:30   72.7    36    0.0     0      0.0   866.0    0.00       0    85.8
 262   19:40   72.4    35    0.4    62      2.6   866.1    0.00       0    85.6
 262   19:50   71.6    36    0.1   130      0.8   866.2    0.00       0    85.4
 262   20:00   71.8    36    0.9   259      4.3   866.4    0.00       0    85.1
 262   20:10   71.3    36    0.3   148      1.5   866.5    0.00       0    84.9
 262   20:20   70.2    37    0.1   230      1.1   866.6    0.00       0    84.7
 262   20:30   69.6    36    0.3    90      0.9   866.7    0.00       0    84.5
 262   20:40   69.5    37    0.6   251      2.3   866.7    0.00       0    84.3
 262   20:50   68.3    39    0.6   151      1.2   866.8    0.00       0    84.1
 262   21:00   68.4    38    0.6   205      1.8   866.9    0.00       0    83.9
 262   21:10   68.2    40    0.2    57      1.0   866.9    0.00       0    83.7
 262   21:20   67.6    42    0.7    53      2.0   867.0    0.00       0    83.5
 262   21:30   67.0    42    0.2   105      1.7   867.0    0.00       0    83.3
 262   21:40   66.7    42    0.2   148      1.2   867.0    0.00       0    83.2
 262   21:50   66.5    42    0.5   191      1.4   867.1    0.00       0    83.0
 262   22:00   66.3    42    0.5    57      1.5   867.2    0.00       0    82.8
 262   22:10   66.1    42    1.1    67      2.7   867.3    0.00       1    82.6
 262   22:20   65.9    41    1.0   101      2.9   867.3    0.00       0    82.4
 262   22:30   66.4    40    0.9    21      2.6   867.3    0.00       0    82.3
 262   22:40   66.0    41    0.5   329      2.0   867.4    0.00       0    82.1
 262   22:50   64.7    43    0.5    76      1.5   867.5    0.00       1    81.9
 262   23:00   64.8    44    0.9   101      2.1   867.5    0.00       1    81.7
 262   23:10   64.6    45    0.7    96      1.9   867.7    0.00       1    81.5
 262   23:20   64.5    44    1.0   152      4.5   867.7    0.00       1    81.4
 262   23:30   64.6    44    0.7   335      1.9   867.8    0.00       1    81.2
 262   23:40   64.5    44    1.5   271      5.0   867.9    0.00       1    81.1
 262   23:50   63.9    45    0.0   177      1.3   868.0    0.00       1    80.9
 263    0:00   63.0    47    0.2   162      1.3   868.0    0.00       1    80.8
 263    0:10   62.6    48    0.3   116      1.9   868.1    0.00       1    80.6
 263    0:20   62.2    48    0.3   124      1.5   868.1    0.00       2    80.5
 263    0:30   62.5    47    0.3   110      1.7   868.2    0.00       1    80.3
 263    0:40   61.8    49    0.0   139      0.7   868.1    0.00       2    80.2
 263    0:50   61.4    50    0.0     0      0.0   868.1    0.00       1    80.0
 263    1:00   61.4    50    0.0     0      0.0   868.2    0.00       1    79.9
 263    1:10   61.5    50    0.1    20      1.2   868.3    0.00       1    79.7
 263    1:20   61.6    50    0.7    80      1.2   868.4    0.00       2    79.6
 263    1:30   61.4    49    0.6   114      1.5   868.4    0.00       2    79.4
 263    1:40   60.8    50    0.9   122      1.3   868.4    0.00       1    79.3
 263    1:50   60.3    51    0.7   112      1.5   868.5    0.00       2    79.2
 263    2:00   60.3    51    0.4    40      1.7   868.5    0.00       2    79.0
 263    2:10   59.6    52    0.8   122      1.8   868.5    0.00       1    78.9
 263    2:20   59.4    52    0.4    81      1.7   868.5    0.00       1    78.7
 263    2:30   59.4    52    0.5   151      1.8   868.5    0.00       1    78.6
 263    2:40   59.0    52    0.1   158      0.7   868.5    0.00       1    78.5
 263    2:50   58.9    52    0.3   158      1.1   868.5    0.00       1    78.3
 263    3:00   58.5    53    0.2   160      1.0   868.5    0.00       1    78.2
 263    3:10   58.4    54    0.1   118      0.9   868.5    0.00       1    78.0
 263    3:20   58.4    52    0.7    94      2.2   868.3    0.00       1    77.9
 263    3:30   58.7    52    0.2    58      1.2   868.3    0.00       1    77.7
 263    3:40   58.4    53    0.7   230      2.8   868.4    0.00       1    77.6
 263    3:50   58.0    55    0.4   226      1.8   868.4    0.00       2    77.5
 263    4:00   57.6    56    1.0   232      4.2   868.4    0.00       1    77.3
 263    4:10   57.7    58    0.1   129      1.0   868.5    0.00       0    77.2
 263    4:20   57.2    61    0.8   120      1.5   868.5    0.00       0    77.1
 263    4:30   57.2    60    0.8   100      2.0   868.6    0.00       1    76.9
 263    4:40   57.1    61    1.3   103      2.4   868.6    0.00       0    76.8
 263    4:50   57.2    58    0.3   130      1.5   868.7    0.00       1    76.7
 263    5:00   57.3    58    0.7    94      2.6   868.7    0.00       1    76.6
 263    5:10   57.1    58    1.5    86      3.2   868.8    0.00       2    76.5
 263    5:20   57.8    55    0.7    84      2.3   868.8    0.00       3    76.4
 263    5:30   58.0    54    0.7   240      2.5   868.9    0.00       7    76.2
 263    5:40   57.8    56    0.9   127      2.0   869.0    0.00      23    76.1
 263    5:50   58.1    59    0.2    50      1.4   869.1    0.00      20    76.0
 263    6:00   58.1    57    0.7   105      2.4   869.2    0.00      20    75.9
 263    6:10   57.9    56    0.8   217      1.7   869.3    0.00      35    75.9
 263    6:20   58.2    58    0.2   158      1.1   869.4    0.00      99    75.8
 263    6:30   59.1    55    0.3   188      1.2   869.5    0.00     126    75.6

Return to Caliente, Nevada graphs page.


Western Regional Climate Center,wrcc@dri.edu